Time;durP1;ratioP1;P1;durP2;ratioP2;P2;SDS_P1;SDS_P2;PMS_P1;PMS_P2;Temp;Humidity;BMP_temperature;BMP_pressure;BME280_temperature;BME280_humidity;BME280_pressure;Samples;Min_cycle;Max_cycle;Signal;HPM_P1;HPM_P2
2021/04/24 00:00:55;;;;;;;14.07;4.45;;;;;;;29.26;55.07;100835.72;5025045;28;70025;-35
2021/04/24 00:03:25;;;;;;;11.65;5.47;;;;;;;29.28;56.23;100849.81;5031412;28;65439;-33
2021/04/24 00:05:54;;;;;;;13.98;9.10;;;;;;;29.31;61.55;100850.25;5022464;28;70150;-35
2021/04/24 00:08:25;;;;;;;13.98;8.82;;;;;;;29.45;62.02;100858.28;5019761;28;65735;-34
2021/04/24 00:10:55;;;;;;;9.57;8.75;;;;;;;29.46;63.01;100868.09;5020173;28;69364;-34
2021/04/24 00:13:24;;;;;;;25.85;9.70;;;;;;;29.50;63.54;100867.44;5026459;28;66295;-33
2021/04/24 00:15:54;;;;;;;20.20;12.00;;;;;;;29.54;65.41;100875.97;5026498;28;69160;-33
2021/04/24 00:18:24;;;;;;;19.20;10.77;;;;;;;29.58;65.10;100882.59;5025284;28;66101;-35
2021/04/24 00:20:54;;;;;;;19.60;9.23;;;;;;;29.61;65.94;100888.44;5023567;28;69923;-35
2021/04/24 00:23:24;;;;;;;19.23;9.43;;;;;;;29.67;65.12;100892.19;5022916;28;66001;-38
2021/04/24 00:25:54;;;;;;;20.30;8.68;;;;;;;29.71;64.11;100898.81;5029564;28;69819;-37
2021/04/24 00:28:24;;;;;;;16.20;8.35;;;;;;;29.72;64.66;100895.06;5022157;28;65961;-36
2021/04/24 00:30:53;;;;;;;29.08;8.50;;;;;;;29.80;64.97;100905.66;5017803;28;69939;-37
2021/04/24 00:33:25;;;;;;;17.77;8.10;;;;;;;29.80;64.68;100908.34;5027066;28;65350;-37
2021/04/24 00:35:55;;;;;;;13.38;7.65;;;;;;;29.93;64.56;100917.50;5023773;28;69813;-36
2021/04/24 00:38:25;;;;;;;17.35;6.90;;;;;;;30.01;64.23;100919.97;5020500;28;65120;-36
2021/04/24 00:41:02;;;;;;;25.50;6.88;;;;;;;30.09;63.96;100921.56;5018265;28;70308;-36
2021/04/24 00:43:32;;;;;;;23.23;7.20;;;;;;;30.13;63.37;100918.25;5019877;28;65082;-36
2021/04/24 00:46:11;;;;;;;10.73;6.87;;;;;;;30.18;62.69;100929.25;5018911;28;69743;-36
2021/04/24 00:48:41;;;;;;;14.20;6.72;;;;;;;30.25;62.96;100930.06;5028209;28;66129;-35
2021/04/24 00:51:11;;;;;;;9.52;6.40;;;;;;;30.27;62.33;100930.69;5027511;28;69372;-35
2021/04/24 00:53:41;;;;;;;12.60;6.88;;;;;;;30.31;62.56;100938.38;5021644;28;65994;-36
2021/04/24 00:56:11;;;;;;;8.73;6.05;;;;;;;30.33;62.42;100933.59;5032964;28;70021;-36
2021/04/24 00:58:40;;;;;;;9.05;6.05;;;;;;;30.35;62.19;100940.44;5022074;28;66947;-36
2021/04/24 01:01:11;;;;;;;8.27;5.50;;;;;;;30.40;61.88;100958.75;5021942;28;70282;-36
2021/04/24 01:03:40;;;;;;;9.57;6.03;;;;;;;30.42;61.93;100956.66;5035937;28;66132;-36
2021/04/24 01:06:10;;;;;;;7.50;5.95;;;;;;;30.41;61.33;100957.69;5032034;28;69059;-36
2021/04/24 01:08:40;;;;;;;7.28;6.03;;;;;;;30.45;61.30;100972.44;5021629;28;66135;-36
2021/04/24 01:11:09;;;;;;;10.68;5.93;;;;;;;30.47;61.01;100973.06;5034299;28;70778;-36
2021/04/24 01:13:42;;;;;;;8.50;5.40;;;;;;;30.50;61.41;100972.63;5035850;28;66079;-36
2021/04/24 01:16:12;;;;;;;6.00;5.30;;;;;;;30.55;60.98;100970.13;5027176;28;70324;-36
2021/04/24 01:18:48;;;;;;;6.13;5.47;;;;;;;30.54;60.94;100973.88;5018082;28;66085;-35
2021/04/24 01:21:23;;;;;;;5.97;5.57;;;;;;;30.51;61.13;100968.91;5024325;28;69399;-35
2021/04/24 01:24:22;;;;;;;7.68;5.78;;;;;;;30.60;60.61;100977.59;5017941;28;65303;-35
2021/04/24 01:26:54;;;;;;;5.90;5.13;;;;;;;30.63;60.33;100978.00;5025336;28;69829;-35
2021/04/24 01:29:24;;;;;;;5.93;5.18;;;;;;;30.64;60.35;100971.53;5016059;28;66139;-35
2021/04/24 01:31:54;;;;;;;8.77;5.80;;;;;;;30.65;60.75;100981.31;5002331;28;69266;-35
2021/04/24 01:34:24;;;;;;;7.05;5.70;;;;;;;30.66;60.05;100974.84;5020850;28;66136;-35
2021/04/24 01:36:57;;;;;;;7.63;5.43;;;;;;;30.68;60.68;100986.31;5015561;28;69448;-35
2021/04/24 01:39:29;;;;;;;6.28;5.35;;;;;;;30.72;60.49;100992.94;5005805;28;65802;-35
2021/04/24 01:41:59;;;;;;;5.63;5.10;;;;;;;30.71;59.92;100988.56;5016183;28;70073;-35
2021/04/24 01:44:29;;;;;;;6.13;5.20;;;;;;;30.77;60.28;100994.19;5015312;28;67115;-35
2021/04/24 01:46:59;;;;;;;5.35;5.00;;;;;;;30.79;60.11;100995.63;5018854;28;69069;-35
2021/04/24 01:49:30;;;;;;;5.38;4.90;;;;;;;30.84;59.77;100989.56;4998198;28;66270;-36
2021/04/24 01:52:00;;;;;;;5.88;5.22;;;;;;;30.85;59.59;100992.06;5004555;28;69173;-36
2021/04/24 01:54:31;;;;;;;5.40;4.75;;;;;;;30.89;59.53;100992.47;5021694;28;65542;-37
2021/04/24 01:57:02;;;;;;;5.53;5.03;;;;;;;30.92;59.57;100994.72;5019752;28;69089;-36
2021/04/24 01:59:35;;;;;;;5.32;4.90;;;;;;;30.94;59.35;100984.50;5022870;28;66206;-36
2021/04/24 02:02:07;;;;;;;5.40;4.72;;;;;;;30.95;59.40;100986.16;5019568;28;70100;-36
2021/04/24 02:04:37;;;;;;;6.10;5.50;;;;;;;30.96;59.01;100987.84;5028669;28;66398;-36
2021/04/24 02:07:10;;;;;;;6.13;5.45;;;;;;;30.92;59.40;100967.63;5019984;28;69095;-38
2021/04/24 02:09:49;;;;;;;6.07;5.55;;;;;;;30.96;60.68;100982.44;5013910;28;65993;-36
2021/04/24 02:12:19;;;;;;;11.98;6.20;;;;;;;30.96;61.28;100981.59;5019347;28;70655;-35
2021/04/24 02:14:51;;;;;;;11.60;6.25;;;;;;;30.90;62.49;100961.63;5025951;28;65333;-37
2021/04/24 02:17:24;;;;;;;;;;;;;;;30.85;62.98;100970.41;5028569;28;68133;-36
2021/04/24 02:19:54;;;;;;;6.57;5.97;;;;;;;30.96;62.83;100968.88;5022267;28;65543;-36
2021/04/24 02:22:33;;;;;;;7.85;6.00;;;;;;;30.99;62.58;100965.72;5022250;28;69732;-36
2021/04/24 02:25:22;;;;;;;9.18;5.93;;;;;;;30.98;62.74;100968.66;5029232;28;66693;-36
2021/04/24 02:28:13;;;;;;;6.60;5.53;;;;;;;31.03;62.56;100974.25;5015224;28;70406;-37
2021/04/24 02:30:48;;;;;;;12.93;6.40;;;;;;;31.02;62.56;100970.69;5016998;28;65761;-35
2021/04/24 02:33:20;;;;;;;8.88;5.80;;;;;;;31.04;62.76;100957.78;5017183;28;69584;-36
2021/04/24 02:35:54;;;;;;;9.57;5.93;;;;;;;31.09;62.09;100954.38;5030565;28;66234;-36
2021/04/24 02:38:26;;;;;;;15.27;5.50;;;;;;;31.12;62.34;100948.53;5035358;28;69867;-35
2021/04/24 02:41:00;;;;;;;13.95;6.05;;;;;;;31.17;62.24;100946.84;5026578;28;65260;-31
2021/04/24 02:43:30;;;;;;;7.65;5.45;;;;;;;31.20;61.76;100950.13;5029081;28;69194;-32
2021/04/24 02:46:00;;;;;;;12.20;5.63;;;;;;;31.25;61.61;100948.44;5017330;28;66270;-32
2021/04/24 02:48:29;;;;;;;11.00;5.10;;;;;;;31.28;62.01;100952.56;5027570;28;71071;-30
2021/04/24 02:50:59;;;;;;;5.18;4.78;;;;;;;31.34;61.63;100951.69;5017181;28;65167;-33
2021/04/24 02:53:29;;;;;;;5.47;4.97;;;;;;;31.42;61.07;100954.16;5016034;28;69154;-32
2021/04/24 02:55:59;;;;;;;11.23;5.47;;;;;;;31.46;61.33;100958.09;5017078;28;65360;-33
2021/04/24 02:59:06;;;;;;;11.20;5.07;;;;;;;31.49;60.85;100951.41;5032738;28;72056;-31
2021/04/24 03:01:38;;;;;;;9.65;4.97;;;;;;;31.57;60.59;100946.50;5020099;28;67176;-32
2021/04/24 03:04:09;;;;;;;6.20;5.38;;;;;;;31.56;60.69;100944.84;5015988;28;70249;-31
2021/04/24 03:06:40;;;;;;;17.65;5.60;;;;;;;31.54;60.63;100941.53;5002783;28;65132;-32
2021/04/24 03:09:14;;;;;;;5.60;4.95;;;;;;;31.59;60.89;100941.72;5010843;28;70051;-33
2021/04/24 03:11:45;;;;;;;5.72;5.15;;;;;;;31.65;60.61;100939.13;5004925;28;65372;-33
2021/04/24 03:14:15;;;;;;;4.95;4.40;;;;;;;31.66;60.38;100927.25;5001796;28;69982;-32
2021/04/24 03:16:44;;;;;;;4.93;4.53;;;;;;;31.59;60.67;100928.16;5001450;28;65460;-33
2021/04/24 03:23:00;;;;;;;11.05;3.85;;;;;;;31.67;60.20;100923.47;5004112;28;65474;-33
2021/04/24 03:25:30;;;;;;;6.75;4.32;;;;;;;31.65;60.37;100921.00;5001970;28;68980;-33
2021/04/24 03:28:00;;;;;;;4.78;4.47;;;;;;;31.69;59.94;100915.94;4998779;28;65846;-32
2021/04/24 03:30:31;;;;;;;7.25;4.20;;;;;;;31.71;59.93;100913.84;5005329;28;69074;-33
2021/04/24 03:33:01;;;;;;;4.32;4.03;;;;;;;31.75;60.18;100910.44;5010492;28;65626;-32
2021/04/24 03:35:31;;;;;;;10.32;4.45;;;;;;;31.76;59.50;100908.53;5000494;28;69886;-31
2021/04/24 03:38:01;;;;;;;10.60;4.30;;;;;;;31.74;59.96;100907.97;5009055;28;66729;-33
2021/04/24 03:40:32;;;;;;;4.68;4.10;;;;;;;31.77;59.59;100900.19;5001666;28;70953;-31
2021/04/24 03:43:02;;;;;;;6.15;4.72;;;;;;;31.84;59.88;100905.53;5015363;28;66071;-32
2021/04/24 03:45:34;;;;;;;7.38;4.38;;;;;;;31.89;59.30;100902.97;5017193;28;69956;-32
2021/04/24 03:48:04;;;;;;;5.97;4.15;;;;;;;31.94;58.64;100897.72;5011518;28;65476;-32
2021/04/24 03:50:34;;;;;;;4.43;4.03;;;;;;;31.88;58.96;100889.66;4999610;28;69051;-33
2021/04/24 03:53:05;;;;;;;4.65;4.13;;;;;;;31.81;59.31;100878.88;5001496;28;66281;-32
2021/04/24 03:55:36;;;;;;;6.07;3.78;;;;;;;31.82;59.19;100877.84;5015856;28;69156;-33
2021/04/24 03:58:07;;;;;;;4.15;3.72;;;;;;;31.82;58.47;100861.56;4998860;28;65797;-33
2021/04/24 04:00:39;;;;;;;3.78;3.47;;;;;;;31.82;58.78;100867.81;5001907;28;68948;-32
2021/04/24 04:03:10;;;;;;;3.77;3.37;;;;;;;31.86;58.49;100861.91;5000508;28;65984;-32
2021/04/24 04:05:45;;;;;;;8.85;4.50;;;;;;;31.90;58.30;100869.38;5014845;28;70733;-33
2021/04/24 04:08:15;;;;;;;5.72;4.10;;;;;;;31.88;58.53;100860.63;5000017;28;65198;-32
2021/04/24 04:10:46;;;;;;;4.00;3.40;;;;;;;31.85;58.51;100854.84;4993013;28;69920;-32
2021/04/24 04:13:17;;;;;;;4.78;4.28;;;;;;;31.79;59.24;100845.75;5000637;28;66359;-33
2021/04/24 04:15:48;;;;;;;4.05;3.75;;;;;;;31.77;59.02;100837.00;5003988;28;69781;-33
2021/04/24 04:18:20;;;;;;;4.32;3.90;;;;;;;31.77;58.99;100837.81;5017017;28;66005;-35
2021/04/24 04:20:55;;;;;;;6.28;3.75;;;;;;;31.75;59.83;100830.97;5001350;28;69663;-36
2021/04/24 04:23:25;;;;;;;11.23;3.72;;;;;;;31.75;59.95;100825.53;5001624;28;66249;-34
2021/04/24 04:25:56;;;;;;;7.47;3.85;;;;;;;31.61;58.33;100816.72;5001912;28;71031;-32
2021/04/24 04:28:28;;;;;;;4.05;3.65;;;;;;;31.50;57.54;100810.19;5001493;28;66401;-33
2021/04/24 04:30:58;;;;;;;;;;;;;;;31.20;57.01;100812.75;5008253;28;69468;-33
2021/04/24 04:33:28;;;;;;;5.47;3.75;;;;;;;31.22;56.89;100807.97;5000055;28;65663;-33
2021/04/24 04:36:03;;;;;;;3.63;3.30;;;;;;;31.14;56.58;100800.94;4998797;28;69941;-34
2021/04/24 04:38:34;;;;;;;3.60;3.17;;;;;;;31.06;56.28;100797.69;4999479;28;65290;-33
2021/04/24 04:41:04;;;;;;;5.38;3.85;;;;;;;31.10;54.75;100797.03;4997436;28;70892;-37
2021/04/24 04:43:36;;;;;;;3.50;2.95;;;;;;;31.01;54.50;100784.84;4993707;28;66893;-38
2021/04/24 04:46:06;;;;;;;3.70;2.97;;;;;;;30.95;53.78;100791.13;4999527;28;69721;-37
2021/04/24 04:48:37;;;;;;;3.30;3.00;;;;;;;30.84;52.72;100779.19;5001509;28;65848;-38
2021/04/24 04:51:07;;;;;;;7.47;3.30;;;;;;;30.91;53.18;100784.50;5002474;28;71110;-37
2021/04/24 04:53:37;;;;;;;16.77;2.85;;;;;;;30.91;52.31;100769.09;5002078;28;65385;-37
2021/04/24 04:56:13;;;;;;;4.45;3.00;;;;;;;30.86;51.77;100770.81;4998938;28;70088;-38
2021/04/24 04:58:43;;;;;;;4.15;3.03;;;;;;;30.89;50.86;100771.19;5001338;28;65477;-37
2021/04/24 05:01:13;;;;;;;4.18;3.10;;;;;;;30.90;50.14;100769.31;4998238;28;69354;-38
2021/04/24 05:03:43;;;;;;;6.05;3.20;;;;;;;30.85;50.52;100763.75;5001974;28;65930;-37
2021/04/24 05:06:14;;;;;;;3.65;3.10;;;;;;;30.80;49.78;100750.03;5003068;28;70082;-38
2021/04/24 05:08:44;;;;;;;3.10;2.75;;;;;;;30.81;49.14;100751.69;4997187;28;66432;-37
2021/04/24 05:11:14;;;;;;;4.35;3.47;;;;;;;30.77;49.16;100750.47;5001966;28;70735;-37
2021/04/24 05:13:44;;;;;;;4.20;3.30;;;;;;;30.76;48.06;100748.78;5003476;28;65430;-38
2021/04/24 05:16:15;;;;;;;3.85;3.22;;;;;;;30.76;47.78;100743.38;4995447;28;70130;-36
2021/04/24 05:18:44;;;;;;;3.45;3.15;;;;;;;30.72;47.59;100737.56;4997742;28;66101;-39
2021/04/24 05:21:14;;;;;;;3.05;2.80;;;;;;;30.70;47.17;100728.84;5004990;28;69989;-37
2021/04/24 05:23:43;;;;;;;3.88;2.90;;;;;;;30.80;47.28;100723.78;4997619;28;66716;-36
2021/04/24 05:26:13;;;;;;;3.67;2.97;;;;;;;30.79;46.66;100719.41;5000318;28;68451;-37
2021/04/24 05:28:43;;;;;;;3.67;2.92;;;;;;;30.81;46.36;100713.78;5015847;28;66408;-35
2021/04/24 05:31:13;;;;;;;5.22;3.20;;;;;;;30.74;46.46;100713.81;4998219;28;70291;-37
2021/04/24 05:33:43;;;;;;;3.50;3.20;;;;;;;30.72;46.15;100705.91;4997470;28;66141;-36
2021/04/24 05:36:16;;;;;;;3.08;2.85;;;;;;;30.72;46.10;100699.66;5000080;28;69980;-36
2021/04/24 05:38:49;;;;;;;3.35;3.03;;;;;;;30.70;45.62;100697.19;5001040;28;66112;-36
2021/04/24 05:41:22;;;;;;;4.00;3.08;;;;;;;30.68;45.79;100693.88;5009439;28;69923;-35
2021/04/24 05:43:54;;;;;;;3.17;2.88;;;;;;;30.70;45.70;100685.53;5007816;28;65175;-36
2021/04/24 05:46:25;;;;;;;5.47;3.10;;;;;;;30.67;45.34;100681.41;5010918;28;69821;-36
2021/04/24 05:48:55;;;;;;;7.80;2.90;;;;;;;30.56;45.94;100673.16;5011115;28;66385;-36
2021/04/24 05:51:25;;;;;;;3.15;2.95;;;;;;;30.48;45.72;100660.78;5000842;28;69498;-36
2021/04/24 05:53:55;;;;;;;5.13;3.28;;;;;;;30.51;45.49;100654.91;5008483;28;65498;-37
2021/04/24 05:56:25;;;;;;;2.88;2.67;;;;;;;30.51;44.68;100644.09;5005534;28;69077;-35
2021/04/24 05:58:55;;;;;;;4.30;2.70;;;;;;;30.49;44.72;100641.59;5013726;28;66168;-37
2021/04/24 06:01:25;;;;;;;4.60;2.85;;;;;;;30.51;45.28;100633.25;5002717;28;69750;-36
2021/04/24 06:03:55;;;;;;;2.55;2.35;;;;;;;30.45;44.68;100629.56;5009987;28;65313;-36
2021/04/24 06:06:25;;;;;;;5.13;2.78;;;;;;;30.48;44.89;100625.59;4999395;28;70370;-36
2021/04/24 06:08:55;;;;;;;7.82;2.78;;;;;;;30.54;44.99;100623.88;5001210;28;64904;-38
2021/04/24 06:11:24;;;;;;;6.97;2.25;;;;;;;30.56;44.83;100625.25;4996623;28;68806;-37
2021/04/24 06:13:54;;;;;;;2.33;2.13;;;;;;;30.55;44.37;100625.50;5003025;28;65466;-37
2021/04/24 06:16:23;;;;;;;3.15;2.22;;;;;;;30.57;44.66;100618.81;4995438;28;69209;-37
2021/04/24 06:18:53;;;;;;;13.65;3.17;;;;;;;30.64;44.40;100610.63;4995376;28;66212;-37
2021/04/24 06:21:23;;;;;;;11.98;2.97;;;;;;;30.69;44.44;100602.66;5008194;28;69180;-37
2021/04/24 06:23:52;;;;;;;11.75;2.85;;;;;;;30.71;44.01;100604.09;5016257;28;66299;-38
2021/04/24 06:26:22;;;;;;;10.32;2.30;;;;;;;30.69;43.87;100598.06;5013856;28;68332;-38
2021/04/24 06:28:52;;;;;;;2.58;2.38;;;;;;;30.68;43.64;100591.00;4998491;28;65507;-38
2021/04/24 06:31:21;;;;;;;2.85;2.42;;;;;;;30.73;43.74;100588.44;5007727;28;69882;-37
2021/04/24 06:33:51;;;;;;;6.03;2.58;;;;;;;30.76;43.17;100580.91;4999643;28;65144;-37
2021/04/24 06:36:22;;;;;;;3.90;2.45;;;;;;;30.79;42.91;100575.06;4995903;28;68808;-37
2021/04/24 06:38:54;;;;;;;2.40;2.20;;;;;;;30.93;43.35;100576.56;5011645;28;65171;-37
2021/04/24 06:41:24;;;;;;;5.33;2.43;;;;;;;30.94;42.83;100573.63;5003250;28;69365;-38
2021/04/24 06:43:54;;;;;;;5.65;1.95;;;;;;;30.85;43.01;100575.00;5000176;28;66389;-37
2021/04/24 06:46:24;;;;;;;6.35;2.30;;;;;;;30.94;42.77;100562.78;5002081;28;69817;-36
2021/04/24 06:48:54;;;;;;;6.35;1.90;;;;;;;30.92;42.38;100564.06;5004607;28;66117;-36
2021/04/24 06:51:24;;;;;;;4.43;2.15;;;;;;;30.89;42.08;100564.53;5014967;28;69173;-37
2021/04/24 06:53:53;;;;;;;2.20;1.98;;;;;;;30.79;42.67;100548.81;5014363;28;65966;-37
2021/04/24 06:56:23;;;;;;;2.85;1.80;;;;;;;30.82;41.99;100553.78;5003694;28;70211;-37
2021/04/24 06:58:52;;;;;;;2.28;2.00;;;;;;;30.81;41.62;100541.28;5008724;28;66197;-38
2021/04/24 07:01:23;;;;;;;3.17;2.30;;;;;;;30.85;42.25;100536.25;5016713;28;69422;-39
2021/04/24 07:03:52;;;;;;;2.65;2.05;;;;;;;30.86;41.68;100535.19;5000942;28;66046;-37
2021/04/24 07:06:22;;;;;;;7.68;2.65;;;;;;;30.87;41.67;100534.97;5004572;28;69031;-37
2021/04/24 07:08:52;;;;;;;2.00;1.90;;;;;;;30.91;41.70;100532.63;5007953;28;65262;-38
2021/04/24 07:11:22;;;;;;;1.80;1.70;;;;;;;30.91;41.25;100519.09;4994585;28;70142;-38
2021/04/24 07:13:53;;;;;;;2.60;2.10;;;;;;;30.86;41.31;100510.81;5002214;28;65510;-37
2021/04/24 07:16:22;;;;;;;2.00;1.90;;;;;;;30.90;41.49;100514.75;5011627;28;69278;-37
2021/04/24 07:18:52;;;;;;;14.25;2.33;;;;;;;30.88;41.33;100514.94;5002486;28;65822;-37
2021/04/24 07:21:22;;;;;;;2.47;2.28;;;;;;;30.83;41.29;100514.00;5004931;28;70394;-37
2021/04/24 07:23:52;;;;;;;3.35;1.98;;;;;;;30.87;41.62;100501.63;4999824;28;65216;-38
2021/04/24 07:26:23;;;;;;;5.65;2.13;;;;;;;30.93;41.27;100493.44;5008218;28;70306;-38
2021/04/24 07:28:53;;;;;;;2.80;1.60;;;;;;;30.88;41.18;100495.19;4994508;28;66929;-37
2021/04/24 07:31:23;;;;;;;3.45;1.95;;;;;;;30.91;41.21;100492.81;5010390;28;70339;-37
2021/04/24 07:33:53;;;;;;;3.70;1.88;;;;;;;30.89;41.18;100488.69;5003544;28;65303;-37
2021/04/24 07:36:22;;;;;;;2.30;1.88;;;;;;;30.88;41.21;100487.06;5006605;28;71099;-37
2021/04/24 07:38:52;;;;;;;2.10;1.88;;;;;;;30.82;41.42;100487.97;5012090;28;65426;-37
2021/04/24 07:41:27;;;;;;;2.95;2.03;;;;;;;30.88;41.36;100487.06;5001143;28;69470;-39
2021/04/24 07:43:57;;;;;;;2.95;2.10;;;;;;;30.84;40.73;100486.69;5008168;28;65995;-36
2021/04/24 07:46:27;;;;;;;3.50;1.83;;;;;;;30.84;40.92;100477.72;5006324;28;69867;-35
2021/04/24 07:48:57;;;;;;;1.98;1.88;;;;;;;30.80;40.76;100484.66;5002476;28;66378;-36
2021/04/24 07:51:26;;;;;;;2.67;2.15;;;;;;;30.77;41.40;100479.69;5000962;28;70340;-35
2021/04/24 07:53:56;;;;;;;10.20;2.60;;;;;;;31.02;43.07;100477.69;5001307;28;65594;-37
2021/04/24 07:56:26;;;;;;;20.40;3.47;;;;;;;31.25;46.61;100476.09;4997720;28;70150;-36
2021/04/24 07:58:55;;;;;;;21.33;3.67;;;;;;;31.48;48.75;100476.16;4993231;28;65144;-39
2021/04/24 08:01:25;;;;;;;10.00;3.72;;;;;;;31.68;50.30;100472.25;5004093;28;70030;-38
2021/04/24 08:03:54;;;;;;;11.80;3.97;;;;;;;31.86;51.19;100471.31;5003699;28;65756;-39
2021/04/24 08:06:24;;;;;;;16.08;4.65;;;;;;;31.97;52.22;100468.63;4996825;28;69016;-36
2021/04/24 08:08:54;;;;;;;28.13;4.82;;;;;;;32.08;52.26;100463.44;5014969;28;65853;-37
2021/04/24 08:11:23;;;;;;;13.07;4.50;;;;;;;32.20;52.31;100461.50;5014534;28;70159;-36
2021/04/24 08:13:54;;;;;;;19.35;4.45;;;;;;;32.31;52.10;100467.97;5011678;28;66479;-36
2021/04/24 08:16:23;;;;;;;17.50;4.15;;;;;;;32.27;52.79;100462.22;4995679;28;68741;-37
2021/04/24 08:18:53;;;;;;;7.72;3.45;;;;;;;32.30;53.75;100460.91;5003427;28;66253;-38
2021/04/24 08:21:23;;;;;;;13.93;3.83;;;;;;;32.31;54.15;100463.38;5002493;28;69256;-37
2021/04/24 08:23:58;;;;;;;4.72;3.88;;;;;;;32.32;54.87;100462.31;5008974;28;66761;-37
2021/04/24 08:26:30;;;;;;;9.68;4.18;;;;;;;32.27;54.96;100443.22;4994590;28;70213;-38
2021/04/24 08:29:00;;;;;;;11.60;3.72;;;;;;;32.44;55.05;100463.09;5001163;28;64722;-39
2021/04/24 08:31:30;;;;;;;16.40;4.38;;;;;;;32.53;55.34;100460.03;5003317;28;69869;-38
2021/04/24 08:33:59;;;;;;;11.23;4.10;;;;;;;32.51;56.06;100468.41;5001923;28;66042;-37
2021/04/24 08:36:29;;;;;;;4.78;4.03;;;;;;;32.55;55.54;100468.78;5002938;28;70636;-38
2021/04/24 08:38:59;;;;;;;9.07;3.50;;;;;;;32.60;55.60;100460.75;4997448;28;66656;-37
2021/04/24 08:41:29;;;;;;;10.45;3.92;;;;;;;32.66;55.58;100457.03;4996963;28;69060;-37
2021/04/24 08:43:59;;;;;;;9.32;3.88;;;;;;;32.71;55.83;100457.16;5012115;28;64978;-37
2021/04/24 08:46:29;;;;;;;7.70;3.70;;;;;;;32.73;55.93;100465.84;5002558;28;70356;-38
2021/04/24 08:48:59;;;;;;;8.05;4.07;;;;;;;32.69;55.95;100446.50;5005166;28;66066;-37
2021/04/24 08:51:30;;;;;;;5.80;3.85;;;;;;;32.73;56.23;100455.00;5009521;28;69922;-38
2021/04/24 08:54:00;;;;;;;6.50;3.72;;;;;;;32.75;56.17;100471.06;5000080;28;65978;-38
2021/04/24 08:56:30;;;;;;;4.75;3.28;;;;;;;32.71;56.83;100457.16;5003514;28;69053;-38
2021/04/24 08:59:00;;;;;;;4.43;4.13;;;;;;;32.70;57.08;100471.78;5006727;28;66449;-38
2021/04/24 09:01:30;;;;;;;15.75;4.25;;;;;;;32.71;56.92;100474.25;5006265;28;70013;-37
2021/04/24 09:04:01;;;;;;;11.02;4.47;;;;;;;32.69;57.33;100464.72;4997972;28;65875;-37
2021/04/24 09:06:33;;;;;;;4.35;3.75;;;;;;;32.65;57.57;100455.38;4998475;28;69624;-37
2021/04/24 09:09:07;;;;;;;;;;;;;;;32.54;58.78;100451.66;5011940;28;65960;-38
2021/04/24 09:11:45;;;;;;;4.57;4.20;;;;;;;32.74;57.68;100445.78;5013805;28;69067;-37
2021/04/24 09:14:18;;;;;;;7.15;4.28;;;;;;;32.74;57.53;100443.06;5000215;28;66043;-36
2021/04/24 09:16:50;;;;;;;5.75;4.60;;;;;;;32.75;57.46;100442.00;5012547;28;70177;-37
2021/04/24 09:19:29;;;;;;;9.07;5.18;;;;;;;32.62;58.32;100436.84;5011301;28;66372;-36
2021/04/24 09:22:21;;;;;;;9.85;6.78;;;;;;;32.69;58.52;100453.84;4998792;28;70039;-38
2021/04/24 09:24:52;;;;;;;16.23;7.80;;;;;;;32.72;58.71;100458.78;4979510;28;65492;-40
2021/04/24 09:27:48;;;;;;;;;;;;;;;32.77;59.07;100461.59;4997832;28;69823;-36
2021/04/24 09:30:22;;;;;;;16.15;8.80;;;;;;;32.94;58.83;100467.88;4997874;28;66066;-39
2021/04/24 09:32:51;;;;;;;14.38;8.13;;;;;;;32.95;59.10;100479.56;4997727;28;68910;-37
2021/04/24 09:35:21;;;;;;;16.75;8.98;;;;;;;32.96;59.72;100488.53;4999654;28;66067;-39
2021/04/24 09:37:59;;;;;;;20.30;8.00;;;;;;;32.89;59.56;100486.81;4995433;28;69058;-38
2021/04/24 09:40:30;;;;;;;18.83;7.22;;;;;;;32.89;58.83;100497.66;5004523;28;65899;-37
2021/04/24 09:43:02;;;;;;;22.27;6.40;;;;;;;32.89;59.04;100494.97;4993466;28;69827;-36
2021/04/24 09:45:33;;;;;;;;;;;;;;;32.84;59.82;100508.44;4994586;28;66208;-36
2021/04/24 09:48:03;;;;;;;20.48;6.10;;;;;;;32.98;58.96;100510.88;5000031;28;69862;-38
2021/04/24 09:50:36;;;;;;;14.98;6.03;;;;;;;33.01;59.71;100521.28;5006238;28;65963;-36
2021/04/24 09:53:14;;;;;;;14.93;5.65;;;;;;;32.94;59.49;100527.66;5001064;28;70340;-36
2021/04/24 09:55:45;;;;;;;10.35;5.25;;;;;;;33.02;58.76;100539.25;5004056;28;66500;-36
2021/04/24 09:58:30;;;;;;;16.08;4.70;;;;;;;32.99;59.37;100524.22;5008333;28;69859;-37
2021/04/24 10:01:23;;;;;;;12.30;4.82;;;;;;;33.01;59.32;100532.16;5001059;28;66430;-36
2021/04/24 10:03:54;;;;;;;13.98;3.95;;;;;;;33.04;59.07;100528.94;5002830;28;70198;-38
2021/04/24 10:06:28;;;;;;;;;;;;;;;33.00;59.30;100535.94;4999969;28;66356;-37
2021/04/24 10:09:27;;;;;;;10.93;4.60;;;;;;;32.97;59.89;100552.69;4998196;28;70979;-36
2021/04/24 10:12:00;;;;;;;11.07;4.55;;;;;;;33.03;59.16;100560.72;5009287;28;66622;-36
2021/04/24 10:14:36;;;;;;;23.10;4.57;;;;;;;32.98;59.68;100554.34;5011281;28;69693;-37
2021/04/24 10:17:17;;;;;;;16.75;3.38;;;;;;;32.85;59.49;100540.00;5005538;28;66685;-37
2021/04/24 10:19:48;;;;;;;7.65;3.47;;;;;;;32.91;59.99;100549.06;5011230;28;70046;-35
2021/04/24 10:22:22;;;;;;;9.95;3.00;;;;;;;32.85;60.37;100536.44;5001223;28;65365;-40
2021/04/24 10:24:53;;;;;;;15.00;4.15;;;;;;;32.91;60.58;100544.44;5000239;28;69422;-35
2021/04/24 10:27:23;;;;;;;;;;;;;;;32.77;61.38;100553.94;5010324;28;66417;-40
2021/04/24 10:29:52;;;;;;;8.05;4.00;;;;;;;32.90;60.73;100559.09;5015762;28;68825;-38
2021/04/24 10:32:22;;;;;;;21.52;4.63;;;;;;;32.96;61.26;100570.91;5014694;28;66131;-36
2021/04/24 10:34:53;;;;;;;13.48;4.57;;;;;;;32.91;61.70;100577.06;5010462;28;70333;-38
2021/04/24 10:37:23;;;;;;;11.13;4.25;;;;;;;32.88;61.80;100565.84;5001054;28;65253;-36
2021/04/24 10:40:01;;;;;;;11.23;5.72;;;;;;;32.77;63.06;100569.44;4999551;28;69708;-38
2021/04/24 10:42:33;;;;;;;19.00;6.25;;;;;;;32.85;61.87;100572.59;4997106;28;66201;-37
2021/04/24 10:45:06;;;;;;;15.32;5.60;;;;;;;32.87;61.79;100575.88;4996695;28;69873;-38
2021/04/24 10:50:18;;;;;;;16.63;4.55;;;;;;;32.85;61.64;100586.16;4996789;28;69843;-37
2021/04/24 10:52:50;;;;;;;20.20;4.80;;;;;;;32.82;61.72;100588.53;4997598;28;65282;-38
2021/04/24 10:55:21;;;;;;;;;;;;;;;32.71;62.18;100587.50;4996664;28;69060;-37
2021/04/24 10:57:57;;;;;;;22.50;5.72;;;;;;;32.82;61.40;100594.81;5000891;28;66162;-37
2021/04/24 11:00:30;;;;;;;18.88;5.95;;;;;;;32.85;61.82;100610.63;4995741;28;70064;-37
2021/04/24 11:03:01;;;;;;;26.77;5.43;;;;;;;32.81;61.78;100624.91;4998948;28;65018;-36
2021/04/24 11:05:45;;;;;;;15.95;5.03;;;;;;;32.68;62.38;100615.13;5004884;28;69158;-37
2021/04/24 11:08:21;;;;;;;29.40;5.25;;;;;;;32.77;61.92;100635.44;4996320;28;65291;-37
2021/04/24 11:11:07;;;;;;;9.57;3.10;;;;;;;32.63;61.58;100628.63;4998346;28;70401;-37
2021/04/24 11:13:51;;;;;;;15.35;3.70;;;;;;;32.75;61.31;100647.59;4998064;28;65391;-37
2021/04/24 11:16:23;;;;;;;16.85;4.45;;;;;;;32.67;61.43;100651.50;4996332;28;69890;-37
2021/04/24 11:18:53;;;;;;;13.88;4.20;;;;;;;32.68;61.32;100653.16;4998233;28;66570;-37
2021/04/24 11:21:25;;;;;;;10.07;4.50;;;;;;;32.65;61.39;100653.63;4998161;28;69781;-36
2021/04/24 11:24:05;;;;;;;12.13;4.55;;;;;;;32.47;60.49;100651.88;5003133;28;65402;-36
2021/04/24 11:26:35;;;;;;;9.20;4.55;;;;;;;32.40;58.98;100646.56;5002258;28;69411;-35
2021/04/24 11:29:12;;;;;;;9.73;4.05;;;;;;;32.30;58.00;100657.16;5001461;28;65428;-36
2021/04/24 11:31:55;;;;;;;5.18;3.72;;;;;;;32.17;56.61;100668.22;4998857;28;69646;-35
2021/04/24 11:34:31;;;;;;;5.35;3.60;;;;;;;32.07;55.93;100674.25;4999563;28;66034;-37
2021/04/24 11:37:18;;;;;;;6.57;3.95;;;;;;;31.91;55.47;100670.31;4998040;28;69572;-36
2021/04/24 11:40:11;;;;;;;10.68;3.80;;;;;;;31.81;53.95;100670.84;4994694;28;65222;-37
2021/04/24 11:43:03;;;;;;;10.90;3.58;;;;;;;31.80;53.76;100668.38;5015891;28;70143;-36
2021/04/24 11:45:50;;;;;;;10.75;4.05;;;;;;;31.73;53.10;100686.63;5003060;28;66458;-37
2021/04/24 11:48:38;;;;;;;12.85;4.10;;;;;;;31.67;54.57;100701.94;5003158;28;69274;-37
2021/04/24 11:51:07;;;;;;;19.48;4.13;;;;;;;31.75;54.44;100725.19;5004102;28;65963;-37
2021/04/24 11:53:46;;;;;;;4.63;3.38;;;;;;;31.65;53.22;100719.47;5007982;28;69233;-38